createdAt,value
2024-01-03T00:00:00.919Z,17.87
2024-01-03T00:02:58.755Z,22.87
2024-01-03T00:05:42.065Z,20.30
2024-01-03T00:08:31.511Z,15.93
2024-01-03T00:11:10.741Z,18.70
2024-01-03T00:17:10.895Z,12.40
2024-01-03T00:22:43.076Z,16.60
2024-01-03T00:28:33.327Z,24.47
2024-01-03T00:31:13.024Z,22.87
2024-01-03T00:34:01.122Z,17.37
2024-01-03T00:36:35.274Z,15.10
2024-01-03T00:39:16.456Z,17.37
2024-01-03T00:41:50.326Z,16.63
2024-01-03T00:44:25.992Z,19.43
2024-01-03T00:47:11.185Z,20.23
2024-01-03T00:49:48.640Z,18.20
2024-01-03T00:52:20.484Z,12.57
2024-01-03T00:54:58.359Z,16.47
2024-01-03T00:57:31.686Z,14.17
2024-01-03T01:00:06.131Z,11.30
2024-01-03T01:02:43.506Z,12.40
2024-01-03T01:05:25.180Z,17.13
2024-01-03T01:08:01.767Z,12.47
2024-01-03T01:10:33.289Z,11.07
2024-01-03T01:13:08.194Z,19.37
2024-01-03T01:18:35.419Z,11.57
2024-01-03T01:21:14.062Z,14.67
2024-01-03T01:23:50.302Z,15.87
2024-01-03T01:26:23.748Z,15.13
2024-01-03T01:34:40.124Z,19.17
2024-01-03T01:37:29.598Z,15.33
2024-01-03T01:40:28.836Z,12.80
2024-01-03T01:43:06.548Z,15.23
2024-01-03T01:45:45.630Z,12.30
2024-01-03T01:53:59.564Z,14.40
2024-01-03T01:56:30.549Z,10.93
2024-01-03T01:59:07.405Z,11.27
2024-01-03T02:01:53.044Z,14.07
2024-01-03T02:04:25.718Z,17.93
2024-01-03T02:06:56.515Z,11.03
2024-01-03T02:09:25.055Z,14.23
2024-01-03T02:11:58.287Z,12.47
2024-01-03T02:14:28.115Z,11.30
2024-01-03T02:17:00.202Z,9.10
2024-01-03T02:19:30.867Z,11.53
2024-01-03T02:22:01.727Z,8.10
2024-01-03T02:24:30.263Z,8.57
2024-01-03T02:26:59.392Z,15.97
2024-01-03T02:29:30.408Z,11.10
2024-01-03T02:32:00.786Z,11.03
2024-01-03T02:34:29.560Z,14.87
2024-01-03T02:36:57.845Z,8.07
2024-01-03T02:39:25.228Z,11.20
2024-01-03T02:41:52.904Z,11.30
2024-01-03T02:44:25.221Z,8.73
2024-01-03T02:46:56.700Z,8.23
2024-01-03T02:49:32.771Z,8.03
2024-01-03T03:00:50.728Z,12.17
2024-01-03T03:04:17.337Z,12.23
2024-01-03T03:19:48.357Z,10.63
2024-01-03T03:31:49.166Z,14.57
2024-01-03T03:34:31.281Z,16.77
2024-01-03T04:04:26.515Z,10.50
2024-01-03T04:15:30.555Z,7.13
2024-01-03T04:24:05.321Z,12.67
2024-01-03T04:36:20.074Z,8.80
2024-01-03T05:02:58.065Z,9.33
2024-01-03T05:05:40.436Z,10.13
2024-01-03T05:08:18.662Z,8.97
2024-01-03T05:13:43.352Z,8.27
2024-01-03T05:16:26.749Z,6.93
2024-01-03T05:18:59.435Z,9.93
2024-01-03T05:21:30.237Z,7.63
2024-01-03T05:24:06.029Z,8.77
2024-01-03T05:26:58.957Z,11.40
2024-01-03T05:32:39.547Z,8.13
2024-01-03T05:35:16.650Z,7.83
2024-01-03T05:38:00.709Z,10.20
2024-01-03T05:40:36.897Z,10.30
2024-01-03T05:43:13.221Z,11.00
2024-01-03T05:45:41.957Z,8.13
2024-01-03T05:48:09.536Z,8.77
2024-01-03T05:50:36.702Z,8.67
2024-01-03T05:53:08.656Z,9.73
2024-01-03T05:55:35.941Z,9.93
2024-01-03T05:58:03.039Z,8.60
2024-01-03T06:00:31.286Z,9.23
2024-01-03T06:02:58.442Z,9.70
2024-01-03T06:05:28.076Z,9.40
2024-01-03T06:08:00.598Z,6.03
2024-01-03T06:10:32.706Z,7.13
2024-01-03T06:13:09.184Z,7.50
2024-01-03T06:15:40.025Z,11.73
2024-01-03T06:18:07.732Z,8.43
2024-01-03T06:20:35.555Z,10.90
2024-01-03T06:23:05.903Z,9.40
2024-01-03T06:25:47.775Z,3.83
2024-01-03T06:28:16.723Z,8.97
2024-01-03T06:30:46.388Z,8.10
2024-01-03T06:33:13.803Z,9.33
2024-01-03T06:35:42.873Z,7.60
2024-01-03T06:38:11.121Z,11.83
2024-01-03T06:40:38.589Z,10.57
2024-01-03T06:43:05.688Z,8.20
2024-01-03T06:45:36.086Z,9.03
2024-01-03T06:48:05.444Z,10.80
2024-01-03T06:50:34.055Z,11.93
2024-01-03T06:53:02.444Z,7.43
2024-01-03T06:55:30.076Z,13.27
2024-01-03T06:57:58.179Z,15.70
2024-01-03T07:00:32.838Z,11.07
2024-01-03T07:03:11.721Z,8.20
2024-01-03T07:05:47.707Z,10.47
2024-01-03T07:08:20.682Z,8.83
2024-01-03T07:11:01.081Z,14.60
2024-01-03T07:13:37.172Z,12.00
2024-01-03T07:16:11.518Z,8.17
2024-01-03T07:18:44.982Z,9.50
2024-01-03T07:21:18.155Z,9.37
2024-01-03T07:23:53.061Z,6.40
2024-01-03T07:26:27.643Z,7.73
2024-01-03T07:29:02.863Z,9.73
2024-01-03T07:31:36.770Z,15.70
2024-01-03T07:34:13.379Z,13.20
2024-01-03T07:36:45.145Z,7.07
2024-01-03T07:39:22.516Z,12.43
2024-01-03T07:41:54.437Z,10.50
2024-01-03T07:44:29.190Z,8.87
2024-01-03T07:47:00.404Z,11.23
2024-01-03T07:49:30.593Z,7.37
2024-01-03T07:52:07.032Z,8.33
2024-01-03T07:54:37.142Z,8.70
2024-01-03T07:57:12.894Z,7.47
2024-01-03T07:59:56.668Z,10.80
2024-01-03T08:02:24.656Z,10.50
2024-01-03T08:04:59.612Z,14.90
2024-01-03T08:07:31.152Z,10.33
2024-01-03T08:10:19.351Z,15.27
2024-01-03T08:13:12.732Z,11.13
2024-01-03T08:18:38.737Z,9.97
2024-01-03T08:21:12.757Z,11.00
2024-01-03T08:23:39.906Z,8.77
2024-01-03T08:26:11.391Z,12.30
2024-01-03T08:28:41.582Z,8.07
2024-01-03T08:31:18.543Z,10.50
2024-01-03T08:33:47.412Z,10.10
2024-01-03T08:36:16.101Z,8.17
2024-01-03T08:38:52.212Z,15.73
2024-01-03T08:41:21.091Z,12.30
2024-01-03T08:43:48.493Z,8.93
2024-01-03T08:46:15.736Z,15.27
2024-01-03T08:48:43.587Z,12.60
2024-01-03T08:51:15.515Z,11.67
2024-01-03T08:53:42.884Z,13.30
2024-01-03T08:56:14.515Z,10.30
2024-01-03T08:58:42.803Z,11.57
2024-01-03T09:01:10.235Z,13.93
2024-01-03T09:03:37.668Z,9.43
2024-01-03T09:06:06.564Z,10.60
2024-01-03T09:08:33.823Z,15.10
2024-01-03T09:11:00.909Z,11.60
2024-01-03T09:13:29.282Z,14.07
2024-01-03T09:15:56.317Z,15.47
2024-01-03T09:18:23.467Z,12.40
2024-01-03T09:20:51.112Z,12.53
2024-01-03T09:23:18.027Z,13.17
2024-01-03T09:25:44.994Z,12.90
2024-01-03T09:28:12.378Z,9.13
2024-01-03T09:30:39.467Z,10.77
2024-01-03T09:33:06.986Z,13.60
2024-01-03T09:35:34.003Z,11.93
2024-01-03T09:38:00.934Z,11.20
2024-01-03T09:40:28.035Z,18.13
2024-01-03T09:42:55.381Z,11.73
2024-01-03T09:45:22.720Z,13.97
2024-01-03T09:47:50.009Z,13.70
2024-01-03T09:50:17.723Z,7.03
2024-01-03T09:52:46.154Z,10.83
2024-01-03T09:55:13.023Z,14.20
2024-01-03T09:57:40.921Z,9.80
2024-01-03T10:00:11.781Z,11.60
2024-01-03T10:03:12.242Z,8.70
2024-01-03T10:05:39.618Z,12.13
2024-01-03T10:08:19.960Z,10.40
2024-01-03T10:10:51.462Z,12.23
2024-01-03T10:13:25.407Z,11.27
2024-01-03T10:16:05.648Z,11.00
2024-01-03T10:18:33.798Z,9.83
2024-01-03T10:21:14.967Z,11.17
2024-01-03T10:23:43.765Z,9.47
2024-01-03T10:26:10.962Z,8.63
2024-01-03T10:28:38.318Z,12.03
2024-01-03T10:31:08.650Z,10.53
2024-01-03T10:33:46.812Z,10.07
2024-01-03T10:36:22.675Z,13.67
2024-01-03T10:38:49.931Z,10.73
2024-01-03T10:41:17.983Z,12.00
2024-01-03T10:43:46.837Z,10.50
2024-01-03T10:46:15.243Z,9.77
2024-01-03T10:48:42.220Z,8.27
2024-01-03T10:51:14.756Z,11.23
2024-01-03T10:53:44.908Z,12.47
2024-01-03T10:56:13.434Z,9.43
2024-01-03T10:58:41.077Z,12.70
2024-01-03T11:01:22.147Z,10.27
2024-01-03T11:04:24.125Z,10.93
2024-01-03T11:07:17.033Z,10.70
2024-01-03T11:09:45.488Z,11.43
2024-01-03T11:12:17.183Z,12.97
2024-01-03T11:14:45.900Z,6.77
2024-01-03T11:17:13.052Z,8.27
2024-01-03T11:19:40.697Z,10.73
2024-01-03T11:22:07.765Z,6.13
2024-01-03T11:24:34.758Z,5.53
2024-01-03T11:27:06.824Z,9.27
2024-01-03T11:29:38.468Z,5.30
2024-01-03T11:32:33.453Z,4.30
2024-01-03T11:35:05.444Z,7.13
2024-01-03T11:37:34.001Z,4.53
2024-01-03T11:40:01.268Z,4.87
2024-01-03T11:42:33.694Z,5.63
2024-01-03T11:45:16.533Z,5.00
2024-01-03T11:47:45.614Z,4.23
2024-01-03T11:50:14.589Z,5.47
2024-01-03T11:52:47.327Z,4.33
2024-01-03T11:55:17.527Z,3.70
2024-01-03T11:57:46.372Z,3.87
2024-01-03T12:00:16.222Z,3.97
2024-01-03T12:02:55.509Z,2.97
2024-01-03T12:05:24.186Z,2.23
2024-01-03T12:07:53.491Z,3.17
2024-01-03T12:10:22.361Z,3.20
2024-01-03T12:12:52.514Z,3.57
2024-01-03T12:18:09.585Z,5.03
2024-01-03T12:20:37.983Z,1.73
2024-01-03T12:23:16.204Z,4.43
2024-01-03T12:25:44.684Z,3.60
2024-01-03T12:28:14.408Z,5.33
2024-01-03T12:30:41.618Z,3.57
2024-01-03T12:33:14.283Z,4.17
2024-01-03T12:35:42.288Z,4.00
2024-01-03T12:38:09.606Z,12.07
2024-01-03T12:40:36.692Z,4.03
2024-01-03T12:43:04.524Z,3.77
2024-01-03T12:45:31.599Z,3.50
2024-01-03T12:47:58.863Z,4.40
2024-01-03T12:50:25.975Z,3.33
2024-01-03T12:52:53.750Z,6.33
2024-01-03T12:55:20.980Z,5.43
2024-01-03T12:57:47.873Z,4.50
2024-01-03T13:00:15.962Z,6.80
2024-01-03T13:02:49.746Z,4.83
2024-01-03T13:05:16.949Z,4.97
2024-01-03T13:07:43.893Z,6.17
2024-01-03T13:10:10.862Z,3.77
2024-01-03T13:12:37.997Z,6.73
2024-01-03T13:15:05.734Z,3.23
2024-01-03T13:17:32.832Z,6.80
2024-01-03T13:20:00.286Z,5.53
2024-01-03T13:22:27.319Z,5.20
2024-01-03T13:24:54.337Z,5.37
2024-01-03T13:27:21.181Z,7.17
2024-01-03T13:29:48.712Z,6.23
2024-01-03T13:32:15.713Z,5.90
2024-01-03T13:34:43.497Z,6.97
2024-01-03T13:37:10.937Z,5.40
2024-01-03T13:39:38.376Z,6.63
2024-01-03T13:42:07.295Z,7.37
2024-01-03T13:44:34.377Z,6.97
2024-01-03T13:47:01.277Z,5.07
2024-01-03T13:49:28.464Z,5.13
2024-01-03T13:51:58.405Z,3.90
2024-01-03T14:06:39.000Z,5.83
2024-01-03T14:09:07.928Z,5.83
2024-01-03T14:11:35.165Z,7.40
2024-01-03T14:14:02.380Z,7.17
2024-01-03T14:16:30.217Z,5.47
2024-01-03T14:18:58.289Z,5.07
2024-01-03T14:21:27.097Z,4.07
2024-01-03T14:24:00.628Z,5.10
2024-01-03T14:26:30.028Z,6.63
2024-01-03T14:28:57.109Z,5.73
2024-01-03T14:31:27.161Z,5.83
2024-01-03T14:33:55.049Z,5.80
2024-01-03T14:36:28.805Z,9.13
2024-01-03T14:42:05.042Z,7.57
2024-01-03T14:44:37.837Z,2.63
2024-01-03T14:47:06.597Z,4.83
2024-01-03T14:49:39.071Z,3.53
2024-01-03T14:52:07.320Z,6.53
2024-01-03T14:54:37.098Z,4.00
2024-01-03T14:57:14.140Z,3.83
2024-01-03T14:59:42.192Z,4.27
2024-01-03T15:02:17.310Z,6.37
2024-01-03T15:08:11.831Z,4.67
2024-01-03T15:10:54.027Z,3.23
2024-01-03T15:13:23.132Z,3.60
2024-01-03T15:15:50.060Z,3.80
2024-01-03T15:18:17.253Z,2.23
2024-01-03T15:20:45.311Z,2.00
2024-01-03T15:30:36.999Z,1.20
2024-01-03T15:36:20.184Z,1.97
2024-01-03T15:42:20.163Z,1.70
2024-01-03T15:45:00.291Z,1.37
2024-01-03T16:05:18.729Z,4.27
2024-01-03T16:07:48.763Z,3.90
2024-01-03T16:10:15.950Z,3.47
2024-01-03T16:12:45.330Z,1.57
2024-01-03T16:15:17.696Z,2.67
2024-01-03T16:24:52.533Z,3.27
2024-01-03T16:27:52.889Z,1.97
2024-01-03T16:30:43.710Z,2.93
2024-01-03T16:33:29.136Z,2.97
2024-01-03T16:46:19.814Z,3.13
2024-01-03T16:54:48.485Z,2.63
